GLO4522 SBFZ-SBBE
Flight info
| Callsign | GLO4522 |
|---|---|
| Flight time | 1h 33m |
| Altitude | 34000 |
| Route | ISUPI UZ81 SLI DCT LIVED |
| Aircraft | B738/M-SDE2E3FGHIRWXY/LB1 |
Departure
| Time | 2026-05-01 11:23 |
|---|---|
| Airport | Pinto Martins International Airport (SBFZ) |
Arrival
| Time | 2026-05-01 12:57 |
|---|---|
| Airport | Val de Cans/Júlio Cezar Ribeiro International Airport (SBBE) |
| Time | Latitude | Longitude | Altitude | Speed | Heading |
|---|---|---|---|---|---|
| 2026-05-01 11:16 | -3.77760 | -38.54108 | 88 ft | 0 kts | 194° |
| 2026-05-01 11:18 | -3.77754 | -38.54106 | 88 ft | 4 kts | 195° |
| 2026-05-01 11:19 | -3.77728 | -38.54098 | 89 ft | 4 kts | 201° |
| 2026-05-01 11:19 | -3.77704 | -38.54087 | 89 ft | 4 kts | 214° |
| 2026-05-01 11:19 | -3.77687 | -38.54069 | 89 ft | 4 kts | 256° |
| 2026-05-01 11:19 | -3.77686 | -38.54059 | 89 ft | 1 kts | 284° |
| 2026-05-01 11:21 | -3.77671 | -38.54113 | 90 ft | 14 kts | 285° |
| 2026-05-01 11:21 | -3.77640 | -38.54229 | 89 ft | 18 kts | 284° |
| 2026-05-01 11:22 | -3.77604 | -38.54349 | 91 ft | 18 kts | 302° |
| 2026-05-01 11:22 | -3.77494 | -38.54389 | 91 ft | 17 kts | 359° |
| 2026-05-01 11:22 | -3.77380 | -38.54368 | 92 ft | 16 kts | 13° |
| 2026-05-01 11:22 | -3.77346 | -38.54320 | 95 ft | 8 kts | 100° |
| 2026-05-01 11:23 | -3.77396 | -38.54134 | 92 ft | 66 kts | 105° |
| 2026-05-01 11:23 | -3.77586 | -38.53427 | 84 ft | 142 kts | 104° |
| 2026-05-01 11:23 | -3.77879 | -38.52304 | 364 ft | 184 kts | 108° |
| 2026-05-01 11:23 | -3.78255 | -38.51009 | 1188 ft | 200 kts | 109° |
| 2026-05-01 11:24 | -3.78666 | -38.49633 | 2021 ft | 212 kts | 108° |
| 2026-05-01 11:24 | -3.78781 | -38.48134 | 2699 ft | 226 kts | 78° |
| 2026-05-01 11:24 | -3.76595 | -38.45810 | 4148 ft | 251 kts | 22° |
| 2026-05-01 11:25 | -3.74833 | -38.45649 | 4862 ft | 262 kts | 352° |
| 2026-05-01 11:25 | -3.71814 | -38.47651 | 6199 ft | 270 kts | 314° |
| 2026-05-01 11:25 | -3.70506 | -38.49057 | 6696 ft | 283 kts | 314° |
| 2026-05-01 11:26 | -3.69144 | -38.50502 | 7372 ft | 287 kts | 315° |
| 2026-05-01 11:26 | -3.66338 | -38.53374 | 8918 ft | 290 kts | 317° |
| 2026-05-01 11:26 | -3.64997 | -38.54903 | 9665 ft | 296 kts | 302° |
| 2026-05-01 11:27 | -3.64119 | -38.56781 | 10390 ft | 299 kts | 295° |
| 2026-05-01 11:27 | -3.63319 | -38.58717 | 11047 ft | 303 kts | 294° |
| 2026-05-01 11:27 | -3.62507 | -38.60713 | 11441 ft | 319 kts | 294° |
| 2026-05-01 11:27 | -3.61638 | -38.62841 | 11597 ft | 341 kts | 294° |
| 2026-05-01 11:28 | -3.60706 | -38.65108 | 11763 ft | 362 kts | 294° |
| 2026-05-01 11:28 | -3.59721 | -38.67492 | 11972 ft | 377 kts | 294° |
| 2026-05-01 11:28 | -3.58706 | -38.69941 | 12471 ft | 383 kts | 294° |
| 2026-05-01 11:29 | -3.56644 | -38.74897 | 13641 ft | 388 kts | 294° |
| 2026-05-01 11:29 | -3.55600 | -38.77399 | 14157 ft | 392 kts | 294° |
| 2026-05-01 11:29 | -3.53480 | -38.82473 | 15132 ft | 398 kts | 294° |
| 2026-05-01 11:30 | -3.52408 | -38.85036 | 15615 ft | 401 kts | 294° |
| 2026-05-01 11:30 | -3.51341 | -38.87587 | 16085 ft | 404 kts | 294° |
| 2026-05-01 11:30 | -3.50250 | -38.90193 | 16550 ft | 407 kts | 294° |
| 2026-05-01 11:30 | -3.49153 | -38.92817 | 17033 ft | 411 kts | 294° |
| 2026-05-01 11:31 | -3.48045 | -38.95464 | 17506 ft | 414 kts | 294° |
| 2026-05-01 11:31 | -3.46930 | -38.98130 | 17946 ft | 417 kts | 294° |
| 2026-05-01 11:31 | -3.45805 | -39.00817 | 18362 ft | 420 kts | 294° |
| 2026-05-01 11:31 | -3.44674 | -39.03520 | 18760 ft | 422 kts | 294° |
| 2026-05-01 11:32 | -3.43535 | -39.06241 | 19148 ft | 425 kts | 294° |
| 2026-05-01 11:32 | -3.42392 | -39.08973 | 19528 ft | 427 kts | 294° |
| 2026-05-01 11:32 | -3.41241 | -39.11722 | 19905 ft | 430 kts | 294° |
| 2026-05-01 11:32 | -3.40083 | -39.14487 | 20278 ft | 432 kts | 294° |
| 2026-05-01 11:33 | -3.38918 | -39.17271 | 20639 ft | 435 kts | 294° |
| 2026-05-01 11:33 | -3.37747 | -39.20067 | 21004 ft | 437 kts | 294° |
| 2026-05-01 11:33 | -3.36570 | -39.22877 | 21361 ft | 439 kts | 294° |
| 2026-05-01 11:33 | -3.35386 | -39.25705 | 21704 ft | 442 kts | 294° |
| 2026-05-01 11:34 | -3.34196 | -39.28548 | 22037 ft | 444 kts | 294° |
| 2026-05-01 11:34 | -3.32999 | -39.31406 | 22373 ft | 446 kts | 294° |
| 2026-05-01 11:34 | -3.31795 | -39.34282 | 22710 ft | 449 kts | 294° |
| 2026-05-01 11:34 | -3.30586 | -39.37167 | 23026 ft | 451 kts | 294° |
| 2026-05-01 11:35 | -3.29373 | -39.40071 | 23331 ft | 454 kts | 292° |
| 2026-05-01 11:35 | -3.28565 | -39.43129 | 23578 ft | 459 kts | 275° |
| 2026-05-01 11:35 | -3.28608 | -39.46326 | 23859 ft | 460 kts | 266° |
| 2026-05-01 11:35 | -3.28858 | -39.49521 | 24145 ft | 461 kts | 265° |
| 2026-05-01 11:36 | -3.29140 | -39.52725 | 24394 ft | 463 kts | 265° |
| 2026-05-01 11:36 | -3.29422 | -39.55941 | 24630 ft | 465 kts | 265° |
| 2026-05-01 11:36 | -3.29694 | -39.59172 | 24879 ft | 467 kts | 265° |
| 2026-05-01 11:36 | -3.29951 | -39.62412 | 25132 ft | 468 kts | 265° |
| 2026-05-01 11:37 | -3.30199 | -39.65661 | 25390 ft | 469 kts | 265° |
| 2026-05-01 11:37 | -3.30440 | -39.68921 | 25613 ft | 471 kts | 265° |
| 2026-05-01 11:37 | -3.30599 | -39.71089 | 25768 ft | 472 kts | 265° |
| 2026-05-01 11:37 | -3.30838 | -39.74373 | 25999 ft | 473 kts | 265° |
| 2026-05-01 11:38 | -3.31077 | -39.77660 | 26230 ft | 475 kts | 265° |
| 2026-05-01 11:38 | -3.31316 | -39.80955 | 26459 ft | 476 kts | 265° |
| 2026-05-01 11:38 | -3.31636 | -39.85339 | 26754 ft | 478 kts | 265° |
| 2026-05-01 11:38 | -3.31878 | -39.88660 | 26970 ft | 479 kts | 265° |
| 2026-05-01 11:39 | -3.32122 | -39.91989 | 27180 ft | 480 kts | 265° |
| 2026-05-01 11:39 | -3.32286 | -39.94244 | 27321 ft | 481 kts | 265° |
| 2026-05-01 11:39 | -3.32530 | -39.97585 | 27523 ft | 483 kts | 265° |
| 2026-05-01 11:39 | -3.32775 | -40.00941 | 27729 ft | 484 kts | 265° |
| 2026-05-01 11:40 | -3.33020 | -40.04299 | 27927 ft | 485 kts | 265° |
| 2026-05-01 11:40 | -3.33309 | -40.07667 | 28112 ft | 486 kts | 260° |
| 2026-05-01 11:40 | -3.33856 | -40.11005 | 28285 ft | 487 kts | 263° |
| 2026-05-01 11:40 | -3.34123 | -40.14386 | 28470 ft | 488 kts | 266° |
| 2026-05-01 11:41 | -3.34254 | -40.17785 | 28669 ft | 490 kts | 268° |
| 2026-05-01 11:41 | -3.34374 | -40.21192 | 28836 ft | 491 kts | 267° |
| 2026-05-01 11:41 | -3.34533 | -40.24612 | 29042 ft | 491 kts | 266° |
| 2026-05-01 11:41 | -3.34737 | -40.28016 | 29301 ft | 490 kts | 265° |
| 2026-05-01 11:42 | -3.34973 | -40.31412 | 29588 ft | 489 kts | 265° |
| 2026-05-01 11:42 | -3.35224 | -40.34805 | 29839 ft | 488 kts | 265° |
| 2026-05-01 11:42 | -3.35478 | -40.38195 | 30081 ft | 488 kts | 265° |
| 2026-05-01 11:42 | -3.35730 | -40.41582 | 30288 ft | 488 kts | 265° |
| 2026-05-01 11:43 | -3.35977 | -40.44963 | 30530 ft | 487 kts | 265° |
| 2026-05-01 11:43 | -3.36221 | -40.48332 | 30802 ft | 485 kts | 265° |
| 2026-05-01 11:43 | -3.36441 | -40.51692 | 31082 ft | 483 kts | 269° |
| 2026-05-01 11:44 | -3.35410 | -40.58307 | 31587 ft | 480 kts | 282° |
| 2026-05-01 11:44 | -3.34667 | -40.61556 | 31867 ft | 479 kts | 283° |
| 2026-05-01 11:44 | -3.33941 | -40.64760 | 32125 ft | 478 kts | 282° |
| 2026-05-01 11:44 | -3.33229 | -40.68002 | 32399 ft | 476 kts | 282° |
| 2026-05-01 11:45 | -3.32540 | -40.71242 | 32674 ft | 475 kts | 281° |
| 2026-05-01 11:45 | -3.31866 | -40.74474 | 32942 ft | 474 kts | 281° |
| 2026-05-01 11:45 | -3.31200 | -40.77698 | 33211 ft | 473 kts | 281° |
| 2026-05-01 11:45 | -3.30536 | -40.80915 | 33471 ft | 472 kts | 281° |
| 2026-05-01 11:46 | -3.29871 | -40.84125 | 33743 ft | 471 kts | 281° |
| 2026-05-01 11:46 | -3.29206 | -40.87330 | 33986 ft | 470 kts | 281° |
| 2026-05-01 11:46 | -3.27869 | -40.93780 | 33985 ft | 476 kts | 281° |
| 2026-05-01 11:47 | -3.26532 | -41.00269 | 33977 ft | 476 kts | 281° |
| 2026-05-01 11:47 | -3.25196 | -41.06751 | 33980 ft | 475 kts | 281° |
| 2026-05-01 11:48 | -3.23861 | -41.13224 | 33980 ft | 475 kts | 281° |
| 2026-05-01 11:48 | -3.22526 | -41.19696 | 33980 ft | 475 kts | 281° |
| 2026-05-01 11:49 | -3.21190 | -41.26164 | 33981 ft | 475 kts | 281° |
| 2026-05-01 11:49 | -3.19854 | -41.32635 | 33982 ft | 474 kts | 281° |
| 2026-05-01 11:50 | -3.18520 | -41.39097 | 33980 ft | 474 kts | 281° |
| 2026-05-01 11:50 | -3.17184 | -41.45561 | 33981 ft | 474 kts | 281° |
| 2026-05-01 11:51 | -3.15848 | -41.52024 | 33970 ft | 474 kts | 282° |
| 2026-05-01 11:51 | -3.14512 | -41.58484 | 33967 ft | 474 kts | 282° |
| 2026-05-01 11:52 | -3.13176 | -41.64946 | 33959 ft | 475 kts | 282° |
| 2026-05-01 11:52 | -3.11838 | -41.71414 | 33961 ft | 475 kts | 282° |
| 2026-05-01 11:53 | -3.10498 | -41.77889 | 33956 ft | 475 kts | 282° |
| 2026-05-01 11:53 | -3.09176 | -41.84376 | 33960 ft | 476 kts | 282° |
| 2026-05-01 11:54 | -3.07860 | -41.90874 | 33963 ft | 477 kts | 282° |
| 2026-05-01 11:54 | -3.06541 | -41.97378 | 33968 ft | 477 kts | 282° |
| 2026-05-01 11:55 | -3.05217 | -42.03891 | 33977 ft | 478 kts | 282° |
| 2026-05-01 11:55 | -3.03901 | -42.10367 | 33976 ft | 479 kts | 282° |
| 2026-05-01 11:56 | -3.02569 | -42.16896 | 33976 ft | 479 kts | 282° |
| 2026-05-01 11:56 | -3.01202 | -42.23421 | 33974 ft | 479 kts | 282° |
| 2026-05-01 11:57 | -2.99824 | -42.29946 | 33972 ft | 480 kts | 282° |
| 2026-05-01 11:57 | -2.98449 | -42.36477 | 33978 ft | 479 kts | 282° |
| 2026-05-01 11:58 | -2.97078 | -42.43005 | 33976 ft | 479 kts | 283° |
| 2026-05-01 11:59 | -2.95023 | -42.52793 | 33976 ft | 479 kts | 283° |
| 2026-05-01 11:59 | -2.93652 | -42.59318 | 33971 ft | 479 kts | 283° |
| 2026-05-01 12:00 | -2.91596 | -42.69100 | 33971 ft | 479 kts | 283° |
| 2026-05-01 12:01 | -2.89538 | -42.78883 | 33980 ft | 479 kts | 283° |
| 2026-05-01 12:01 | -2.88166 | -42.85404 | 33981 ft | 479 kts | 283° |
| 2026-05-01 12:02 | -2.86794 | -42.91927 | 33976 ft | 479 kts | 283° |
| 2026-05-01 12:02 | -2.85429 | -42.98410 | 33975 ft | 480 kts | 283° |
| 2026-05-01 12:03 | -2.84054 | -43.04941 | 33973 ft | 480 kts | 283° |
| 2026-05-01 12:03 | -2.82678 | -43.11474 | 33977 ft | 480 kts | 283° |
| 2026-05-01 12:04 | -2.81301 | -43.18008 | 33976 ft | 480 kts | 283° |
| 2026-05-01 12:04 | -2.79924 | -43.24543 | 33975 ft | 480 kts | 283° |
| 2026-05-01 12:05 | -2.78546 | -43.31079 | 33973 ft | 480 kts | 283° |
| 2026-05-01 12:05 | -2.76476 | -43.40896 | 33977 ft | 481 kts | 283° |
| 2026-05-01 12:06 | -2.75097 | -43.47436 | 33974 ft | 481 kts | 283° |
| 2026-05-01 12:06 | -2.73716 | -43.53982 | 33974 ft | 481 kts | 283° |
| 2026-05-01 12:07 | -2.72334 | -43.60527 | 33977 ft | 481 kts | 283° |
| 2026-05-01 12:07 | -2.70958 | -43.67030 | 33973 ft | 481 kts | 283° |
| 2026-05-01 12:08 | -2.69573 | -43.73572 | 33977 ft | 481 kts | 283° |
| 2026-05-01 12:08 | -2.68189 | -43.80111 | 33978 ft | 481 kts | 283° |
| 2026-05-01 12:09 | -2.66804 | -43.86658 | 33974 ft | 481 kts | 283° |
| 2026-05-01 12:09 | -2.65418 | -43.93201 | 33970 ft | 481 kts | 283° |
| 2026-05-01 12:10 | -2.63341 | -44.03013 | 33969 ft | 480 kts | 283° |
| 2026-05-01 12:11 | -2.61270 | -44.12803 | 33970 ft | 479 kts | 283° |
| 2026-05-01 12:11 | -2.59889 | -44.19326 | 33963 ft | 479 kts | 283° |
| 2026-05-01 12:12 | -2.58550 | -44.25855 | 33966 ft | 479 kts | 281° |
| 2026-05-01 12:12 | -2.57508 | -44.32433 | 33968 ft | 479 kts | 279° |
| 2026-05-01 12:13 | -2.56555 | -44.39031 | 33966 ft | 479 kts | 279° |
| 2026-05-01 12:13 | -2.55581 | -44.45615 | 33972 ft | 478 kts | 279° |
| 2026-05-01 12:14 | -2.54588 | -44.52147 | 33971 ft | 478 kts | 279° |
| 2026-05-01 12:14 | -2.53579 | -44.58714 | 33975 ft | 478 kts | 279° |
| 2026-05-01 12:15 | -2.52569 | -44.65284 | 33976 ft | 478 kts | 279° |
| 2026-05-01 12:15 | -2.51559 | -44.71855 | 33982 ft | 478 kts | 279° |
| 2026-05-01 12:16 | -2.50551 | -44.78423 | 33981 ft | 478 kts | 279° |
| 2026-05-01 12:16 | -2.49540 | -44.84999 | 33985 ft | 478 kts | 279° |
| 2026-05-01 12:17 | -2.48531 | -44.91572 | 33979 ft | 478 kts | 279° |
| 2026-05-01 12:17 | -2.47520 | -44.98144 | 33981 ft | 478 kts | 279° |
| 2026-05-01 12:18 | -2.46509 | -45.04720 | 33980 ft | 478 kts | 279° |
| 2026-05-01 12:18 | -2.45500 | -45.11282 | 33984 ft | 477 kts | 279° |
| 2026-05-01 12:19 | -2.44491 | -45.17838 | 33982 ft | 477 kts | 279° |
| 2026-05-01 12:19 | -2.43483 | -45.24385 | 33981 ft | 476 kts | 279° |
| 2026-05-01 12:20 | -2.42477 | -45.30916 | 33982 ft | 475 kts | 279° |
| 2026-05-01 12:20 | -2.41473 | -45.37435 | 33981 ft | 474 kts | 280° |
| 2026-05-01 12:21 | -2.40471 | -45.43940 | 33982 ft | 473 kts | 280° |
| 2026-05-01 12:21 | -2.39469 | -45.50436 | 33981 ft | 472 kts | 280° |
| 2026-05-01 12:22 | -2.38638 | -45.55830 | 33975 ft | 472 kts | 280° |
| 2026-05-01 12:22 | -2.37470 | -45.63404 | 33979 ft | 471 kts | 280° |
| 2026-05-01 12:23 | -2.36470 | -45.69883 | 33985 ft | 471 kts | 280° |
| 2026-05-01 12:23 | -2.35469 | -45.76364 | 33982 ft | 472 kts | 280° |
| 2026-05-01 12:24 | -2.34469 | -45.82844 | 33990 ft | 472 kts | 280° |
| 2026-05-01 12:24 | -2.33467 | -45.89335 | 33986 ft | 473 kts | 280° |
| 2026-05-01 12:25 | -2.32130 | -45.97991 | 33987 ft | 474 kts | 280° |
| 2026-05-01 12:26 | -2.31122 | -46.04509 | 33984 ft | 475 kts | 280° |
| 2026-05-01 12:26 | -2.29606 | -46.14314 | 33980 ft | 476 kts | 279° |
| 2026-05-01 12:27 | -2.28087 | -46.24136 | 33990 ft | 478 kts | 279° |
| 2026-05-01 12:28 | -2.26561 | -46.34000 | 33984 ft | 479 kts | 279° |
| 2026-05-01 12:29 | -2.25033 | -46.43868 | 33989 ft | 479 kts | 279° |
| 2026-05-01 12:29 | -2.23622 | -46.52980 | 33987 ft | 479 kts | 279° |
| 2026-05-01 12:30 | -2.22105 | -46.62773 | 33981 ft | 471 kts | 279° |
| 2026-05-01 12:31 | -2.21103 | -46.69233 | 33864 ft | 471 kts | 279° |
| 2026-05-01 12:31 | -2.20597 | -46.72497 | 33261 ft | 475 kts | 279° |
| 2026-05-01 12:31 | -2.20092 | -46.75750 | 32634 ft | 474 kts | 279° |
| 2026-05-01 12:31 | -2.19587 | -46.79009 | 31975 ft | 475 kts | 279° |
| 2026-05-01 12:32 | -2.19080 | -46.82278 | 31291 ft | 476 kts | 279° |
| 2026-05-01 12:32 | -2.18059 | -46.88854 | 29868 ft | 481 kts | 279° |
| 2026-05-01 12:32 | -2.17548 | -46.92150 | 29294 ft | 477 kts | 279° |
| 2026-05-01 12:33 | -2.17042 | -46.95413 | 28719 ft | 473 kts | 279° |
| 2026-05-01 12:33 | -2.16540 | -46.98648 | 28178 ft | 470 kts | 279° |
| 2026-05-01 12:33 | -2.16041 | -47.01865 | 27644 ft | 466 kts | 279° |
| 2026-05-01 12:33 | -2.15546 | -47.05052 | 27124 ft | 463 kts | 279° |
| 2026-05-01 12:34 | -2.15054 | -47.08221 | 26602 ft | 459 kts | 279° |
| 2026-05-01 12:34 | -2.14566 | -47.11364 | 26078 ft | 457 kts | 279° |
| 2026-05-01 12:34 | -2.14079 | -47.14496 | 25552 ft | 454 kts | 279° |
| 2026-05-01 12:34 | -2.13596 | -47.17609 | 25028 ft | 453 kts | 279° |
| 2026-05-01 12:35 | -2.13113 | -47.20715 | 24509 ft | 451 kts | 279° |
| 2026-05-01 12:35 | -2.12634 | -47.23802 | 23990 ft | 449 kts | 279° |
| 2026-05-01 12:35 | -2.12155 | -47.26881 | 23457 ft | 448 kts | 279° |
| 2026-05-01 12:35 | -2.11679 | -47.29946 | 22863 ft | 446 kts | 279° |
| 2026-05-01 12:36 | -2.11205 | -47.32995 | 22343 ft | 442 kts | 279° |
| 2026-05-01 12:36 | -2.10734 | -47.36022 | 21828 ft | 439 kts | 279° |
| 2026-05-01 12:36 | -2.10268 | -47.39023 | 21328 ft | 435 kts | 280° |
| 2026-05-01 12:36 | -2.09804 | -47.42006 | 20826 ft | 432 kts | 280° |
| 2026-05-01 12:37 | -2.09344 | -47.44965 | 20334 ft | 429 kts | 280° |
| 2026-05-01 12:37 | -2.08886 | -47.47908 | 19824 ft | 428 kts | 280° |
| 2026-05-01 12:37 | -2.08430 | -47.50837 | 19322 ft | 425 kts | 280° |
| 2026-05-01 12:37 | -2.07977 | -47.53753 | 18834 ft | 424 kts | 280° |
| 2026-05-01 12:38 | -2.07525 | -47.56655 | 18343 ft | 422 kts | 280° |
| 2026-05-01 12:38 | -2.06818 | -47.59483 | 17768 ft | 417 kts | 294° |
| 2026-05-01 12:38 | -2.05658 | -47.62116 | 17303 ft | 412 kts | 297° |
| 2026-05-01 12:38 | -2.04463 | -47.64671 | 16819 ft | 409 kts | 297° |
| 2026-05-01 12:39 | -2.03242 | -47.67269 | 16331 ft | 406 kts | 297° |
| 2026-05-01 12:39 | -2.02069 | -47.69789 | 15871 ft | 403 kts | 297° |
| 2026-05-01 12:39 | -2.00904 | -47.72327 | 15415 ft | 400 kts | 297° |
| 2026-05-01 12:39 | -1.99754 | -47.74855 | 14946 ft | 398 kts | 296° |
| 2026-05-01 12:40 | -1.98619 | -47.77365 | 14496 ft | 395 kts | 296° |
| 2026-05-01 12:40 | -1.97503 | -47.79843 | 14028 ft | 386 kts | 296° |
| 2026-05-01 12:40 | -1.96410 | -47.82272 | 13557 ft | 382 kts | 296° |
| 2026-05-01 12:40 | -1.95324 | -47.84685 | 13086 ft | 380 kts | 296° |
| 2026-05-01 12:41 | -1.94243 | -47.87085 | 12627 ft | 377 kts | 296° |
| 2026-05-01 12:41 | -1.93170 | -47.89465 | 12194 ft | 375 kts | 296° |
| 2026-05-01 12:41 | -1.92116 | -47.91808 | 11809 ft | 361 kts | 297° |
| 2026-05-01 12:41 | -1.91114 | -47.94034 | 11676 ft | 342 kts | 297° |
| 2026-05-01 12:42 | -1.90161 | -47.96151 | 11523 ft | 325 kts | 297° |
| 2026-05-01 12:42 | -1.89256 | -47.98161 | 11384 ft | 310 kts | 297° |
| 2026-05-01 12:42 | -1.88378 | -48.00108 | 11272 ft | 304 kts | 297° |
| 2026-05-01 12:42 | -1.87513 | -48.02024 | 11163 ft | 302 kts | 297° |
| 2026-05-01 12:43 | -1.86653 | -48.03926 | 11064 ft | 299 kts | 297° |
| 2026-05-01 12:43 | -1.85799 | -48.05817 | 10874 ft | 297 kts | 297° |
| 2026-05-01 12:43 | -1.84946 | -48.07703 | 10596 ft | 297 kts | 298° |
| 2026-05-01 12:43 | -1.84098 | -48.09581 | 10316 ft | 296 kts | 298° |
| 2026-05-01 12:44 | -1.83252 | -48.11453 | 10041 ft | 295 kts | 298° |
| 2026-05-01 12:44 | -1.82410 | -48.13317 | 9750 ft | 294 kts | 298° |
| 2026-05-01 12:44 | -1.80731 | -48.17033 | 9130 ft | 293 kts | 297° |
| 2026-05-01 12:45 | -1.79062 | -48.20730 | 8524 ft | 291 kts | 297° |
| 2026-05-01 12:45 | -1.78241 | -48.22547 | 8242 ft | 290 kts | 297° |
| 2026-05-01 12:45 | -1.77413 | -48.24383 | 7958 ft | 290 kts | 297° |
| 2026-05-01 12:46 | -1.76584 | -48.26217 | 7672 ft | 289 kts | 296° |
| 2026-05-01 12:46 | -1.75758 | -48.28046 | 7389 ft | 289 kts | 296° |
| 2026-05-01 12:46 | -1.74933 | -48.29872 | 7106 ft | 288 kts | 296° |
| 2026-05-01 12:46 | -1.74045 | -48.31655 | 6906 ft | 283 kts | 301° |
| 2026-05-01 12:47 | -1.73066 | -48.33347 | 6738 ft | 280 kts | 302° |
| 2026-05-01 12:47 | -1.72069 | -48.35021 | 6572 ft | 280 kts | 302° |
| 2026-05-01 12:47 | -1.71071 | -48.36700 | 6422 ft | 282 kts | 302° |
| 2026-05-01 12:47 | -1.70082 | -48.38376 | 6228 ft | 275 kts | 302° |
| 2026-05-01 12:48 | -1.69139 | -48.39987 | 6073 ft | 261 kts | 302° |
| 2026-05-01 12:48 | -1.68251 | -48.41512 | 5906 ft | 251 kts | 302° |
| 2026-05-01 12:48 | -1.67382 | -48.43012 | 5751 ft | 248 kts | 302° |
| 2026-05-01 12:48 | -1.66517 | -48.44504 | 5545 ft | 248 kts | 302° |
| 2026-05-01 12:49 | -1.65652 | -48.45990 | 5348 ft | 247 kts | 302° |
| 2026-05-01 12:49 | -1.64791 | -48.47473 | 5147 ft | 246 kts | 302° |
| 2026-05-01 12:49 | -1.63933 | -48.48955 | 4958 ft | 246 kts | 302° |
| 2026-05-01 12:49 | -1.63083 | -48.50429 | 4764 ft | 245 kts | 302° |
| 2026-05-01 12:50 | -1.62229 | -48.51910 | 4564 ft | 245 kts | 301° |
| 2026-05-01 12:50 | -1.61380 | -48.53377 | 4369 ft | 241 kts | 302° |
| 2026-05-01 12:50 | -1.60558 | -48.54797 | 4196 ft | 230 kts | 302° |
| 2026-05-01 12:50 | -1.59775 | -48.56150 | 4027 ft | 220 kts | 303° |
| 2026-05-01 12:51 | -1.58817 | -48.57289 | 3861 ft | 211 kts | 317° |
| 2026-05-01 12:51 | -1.57773 | -48.58278 | 3728 ft | 209 kts | 321° |
| 2026-05-01 12:51 | -1.55618 | -48.60206 | 3436 ft | 207 kts | 322° |
| 2026-05-01 12:52 | -1.54538 | -48.61147 | 3290 ft | 205 kts | 328° |
| 2026-05-01 12:52 | -1.52061 | -48.60981 | 3053 ft | 186 kts | 35° |
| 2026-05-01 12:52 | -1.50962 | -48.60311 | 3004 ft | 183 kts | 39° |
| 2026-05-01 12:53 | -1.48966 | -48.58745 | 2770 ft | 182 kts | 45° |
| 2026-05-01 12:53 | -1.48052 | -48.57888 | 2544 ft | 178 kts | 48° |
| 2026-05-01 12:53 | -1.47178 | -48.57013 | 2331 ft | 178 kts | 49° |
| 2026-05-01 12:54 | -1.46304 | -48.56127 | 2088 ft | 179 kts | 48° |
| 2026-05-01 12:54 | -1.44579 | -48.54377 | 1641 ft | 168 kts | 47° |
| 2026-05-01 12:54 | -1.43786 | -48.53573 | 1442 ft | 156 kts | 48° |
| 2026-05-01 12:55 | -1.42292 | -48.52056 | 1039 ft | 152 kts | 47° |
| 2026-05-01 12:55 | -1.41552 | -48.51305 | 840 ft | 151 kts | 47° |
| 2026-05-01 12:55 | -1.40808 | -48.50552 | 653 ft | 153 kts | 47° |
| 2026-05-01 12:56 | -1.40081 | -48.49796 | 472 ft | 150 kts | 49° |
| 2026-05-01 12:56 | -1.39363 | -48.49063 | 254 ft | 148 kts | 47° |
| 2026-05-01 12:56 | -1.38638 | -48.48331 | 54 ft | 148 kts | 47° |
| 2026-05-01 12:56 | -1.38044 | -48.47732 | 47 ft | 82 kts | 45° |
| 2026-05-01 12:57 | -1.37733 | -48.47426 | 46 ft | 40 kts | 44° |
| 2026-05-01 12:57 | -1.37610 | -48.47303 | 50 ft | 2 kts | 131° |
| 2026-05-01 12:57 | -1.37628 | -48.47306 | 51 ft | 3 kts | 217° |
| 2026-05-01 12:58 | -1.37665 | -48.47345 | 48 ft | 20 kts | 226° |
| 2026-05-01 12:58 | -1.37786 | -48.47470 | 47 ft | 24 kts | 226° |
| 2026-05-01 12:58 | -1.37899 | -48.47586 | 45 ft | 23 kts | 225° |
| 2026-05-01 12:59 | -1.38194 | -48.47644 | 45 ft | 22 kts | 184° |
| 2026-05-01 12:59 | -1.38342 | -48.47654 | 42 ft | 21 kts | 184° |
| 2026-05-01 12:59 | -1.38622 | -48.47679 | 39 ft | 19 kts | 190° |
| 2026-05-01 13:00 | -1.38745 | -48.47799 | 34 ft | 11 kts | 184° |
| 2026-05-01 13:00 | -1.38823 | -48.47805 | 34 ft | 11 kts | 185° |
| 2026-05-01 13:01 | -1.38971 | -48.47818 | 31 ft | 10 kts | 186° |
| 2026-05-01 13:01 | -1.39038 | -48.47833 | 32 ft | 9 kts | 225° |
| 2026-05-01 13:01 | -1.39039 | -48.47893 | 31 ft | 0 kts | 279° |